Time;durP1;ratioP1;P1;durP2;ratioP2;P2;SDS_P1;SDS_P2;PMS_P1;PMS_P2;Temp;Humidity;BMP_temperature;BMP_pressure;BME280_temperature;BME280_humidity;BME280_pressure;Samples;Min_cycle;Max_cycle;Signal;HPM_P1;HPM_P2
2023/10/23 00:02:05;;;;;;;3.13;1.27;;;11.80;99.90;;;;;;4971682;28;20118;-75
2023/10/23 00:04:51;;;;;;;3.47;1.50;;;11.80;99.90;;;;;;4969149;28;20078;-75
2023/10/23 00:07:37;;;;;;;2.97;1.60;;;11.80;99.90;;;;;;4957804;28;20053;-75
2023/10/23 00:10:24;;;;;;;3.05;1.60;;;11.80;99.90;;;;;;4985919;28;20050;-76
2023/10/23 00:13:11;;;;;;;6.47;1.73;;;11.70;99.90;;;;;;4982440;28;20111;-75
2023/10/23 00:15:59;;;;;;;2.93;1.50;;;11.80;99.90;;;;;;4979600;28;20038;-76
2023/10/23 00:18:45;;;;;;;3.23;1.60;;;11.70;99.90;;;;;;4989781;28;20285;-75
2023/10/23 00:21:31;;;;;;;3.75;1.48;;;11.70;99.90;;;;;;4979337;28;20273;-76
2023/10/23 00:24:17;;;;;;;3.60;1.67;;;11.70;99.90;;;;;;4990590;28;20483;-75
2023/10/23 00:27:03;;;;;;;2.53;1.55;;;11.70;99.90;;;;;;4994292;28;20045;-75
2023/10/23 00:29:49;;;;;;;4.65;1.85;;;11.70;99.90;;;;;;4999459;28;20060;-75
2023/10/23 00:32:35;;;;;;;2.90;1.80;;;11.70;99.90;;;;;;5006665;28;20054;-76
2023/10/23 00:35:21;;;;;;;4.95;1.80;;;11.70;99.90;;;;;;4970384;28;20044;-76
2023/10/23 00:38:07;;;;;;;3.17;1.48;;;11.60;99.90;;;;;;4968068;28;20052;-76
2023/10/23 00:40:53;;;;;;;2.53;1.67;;;11.60;99.90;;;;;;4962476;28;20119;-76
2023/10/23 00:43:39;;;;;;;3.28;1.77;;;11.50;99.90;;;;;;4981382;28;20117;-76
2023/10/23 00:46:25;;;;;;;3.95;2.10;;;11.50;99.90;;;;;;4942633;28;20129;-76
2023/10/23 00:49:11;;;;;;;4.80;1.88;;;11.50;99.90;;;;;;4968593;28;20038;-76
2023/10/23 00:51:57;;;;;;;3.80;2.00;;;11.50;99.90;;;;;;4951601;28;20042;-76
2023/10/23 00:54:43;;;;;;;2.85;1.70;;;11.50;99.90;;;;;;4969566;28;20038;-76
2023/10/23 00:57:29;;;;;;;3.35;1.88;;;11.50;99.90;;;;;;4965085;28;20078;-76
2023/10/23 01:00:15;;;;;;;3.38;1.88;;;11.50;99.90;;;;;;4976255;28;20043;-76
2023/10/23 01:03:04;;;;;;;2.65;1.67;;;11.40;99.90;;;;;;4946394;28;20406;-76
2023/10/23 01:05:50;;;;;;;4.30;2.10;;;11.40;99.90;;;;;;4973232;28;20106;-75
2023/10/23 01:08:37;;;;;;;4.95;2.67;;;11.30;99.90;;;;;;4968554;28;20127;-76
2023/10/23 01:11:23;;;;;;;3.87;2.50;;;11.30;99.90;;;;;;4968453;28;20048;-76
2023/10/23 01:14:09;;;;;;;4.50;2.53;;;11.20;99.90;;;;;;4990565;28;20049;-76
2023/10/23 01:16:55;;;;;;;4.05;2.35;;;11.20;99.90;;;;;;4953807;28;20038;-76
2023/10/23 01:19:41;;;;;;;5.38;2.75;;;11.10;99.90;;;;;;4961621;28;20048;-76
2023/10/23 01:22:27;;;;;;;5.38;2.45;;;11.10;99.90;;;;;;4981417;28;20035;-75
2023/10/23 01:25:14;;;;;;;4.80;1.90;;;11.10;99.90;;;;;;4966592;28;20799;-76
2023/10/23 01:28:00;;;;;;;4.57;2.00;;;11.10;99.90;;;;;;4973654;28;20050;-75
2023/10/23 01:30:47;;;;;;;4.38;2.33;;;11.00;99.90;;;;;;4971671;28;20054;-76
2023/10/23 01:33:34;;;;;;;2.78;1.83;;;11.00;99.90;;;;;;4964640;28;20104;-76
2023/10/23 01:36:20;;;;;;;4.40;2.30;;;11.00;99.90;;;;;;4968095;28;20038;-76
2023/10/23 01:39:06;;;;;;;6.05;2.30;;;10.90;99.90;;;;;;4955886;28;20117;-76
2023/10/23 01:41:52;;;;;;;2.90;1.90;;;11.00;99.90;;;;;;4966372;28;20046;-76
2023/10/23 01:44:38;;;;;;;4.55;2.90;;;10.90;99.90;;;;;;4993316;28;20098;-76
2023/10/23 01:47:24;;;;;;;3.50;1.77;;;10.90;99.90;;;;;;4993050;28;20471;-76
2023/10/23 01:50:10;;;;;;;4.55;2.17;;;11.00;99.90;;;;;;4994407;28;20121;-76
2023/10/23 01:52:57;;;;;;;5.10;2.30;;;11.00;99.90;;;;;;4988336;28;20121;-76
2023/10/23 01:55:42;;;;;;;7.50;2.00;;;11.00;99.90;;;;;;4983853;28;20099;-76
2023/10/23 01:58:28;;;;;;;3.22;2.00;;;11.00;99.90;;;;;;4970737;28;20554;-76
2023/10/23 02:01:24;;;;;;;3.75;2.10;;;10.90;99.90;;;;;;4991074;28;20038;-76
2023/10/23 02:04:10;;;;;;;5.97;2.22;;;10.90;99.90;;;;;;4967817;28;20038;-76
2023/10/23 02:06:56;;;;;;;5.05;2.42;;;10.90;99.90;;;;;;4981572;28;20042;-76
2023/10/23 02:09:42;;;;;;;5.00;2.40;;;10.90;99.90;;;;;;4980335;28;20440;-76
2023/10/23 02:12:28;;;;;;;4.22;2.53;;;10.90;99.90;;;;;;4977103;28;20065;-76
2023/10/23 02:15:16;;;;;;;4.93;2.38;;;10.90;99.90;;;;;;4990676;28;20042;-76
2023/10/23 02:18:03;;;;;;;5.18;2.67;;;10.90;99.90;;;;;;4980261;28;20138;-75
2023/10/23 02:20:48;;;;;;;5.00;2.38;;;10.90;99.90;;;;;;4992870;28;20049;-76
2023/10/23 02:23:34;;;;;;;4.35;2.60;;;10.90;99.90;;;;;;4981298;28;20073;-76
2023/10/23 02:26:21;;;;;;;7.80;2.25;;;10.80;99.90;;;;;;4967362;28;20050;-75
2023/10/23 02:29:07;;;;;;;6.90;2.58;;;10.70;99.90;;;;;;4977345;28;20126;-76
2023/10/23 02:31:53;;;;;;;5.47;2.80;;;10.70;99.90;;;;;;4965983;28;20042;-76
2023/10/23 02:34:39;;;;;;;4.32;2.70;;;10.70;99.90;;;;;;4973230;28;20034;-76
2023/10/23 02:37:25;;;;;;;5.40;2.35;;;10.70;99.90;;;;;;5001289;28;20038;-76
2023/10/23 02:40:11;;;;;;;4.00;2.10;;;10.80;99.90;;;;;;4993164;28;20380;-76
2023/10/23 02:42:57;;;;;;;4.57;2.45;;;10.70;99.90;;;;;;4977920;28;20049;-76
2023/10/23 02:45:43;;;;;;;3.58;2.53;;;10.70;99.90;;;;;;4986810;28;20089;-76
2023/10/23 02:48:29;;;;;;;8.05;2.83;;;10.70;99.90;;;;;;4983989;28;20047;-76
2023/10/23 02:51:17;;;;;;;5.32;2.45;;;10.70;99.90;;;;;;4973592;28;20117;-76
2023/10/23 02:54:03;;;;;;;3.63;2.22;;;10.70;99.90;;;;;;4977153;28;20529;-76
2023/10/23 02:56:51;;;;;;;4.47;2.67;;;10.70;99.90;;;;;;4984055;28;20095;-76
2023/10/23 02:59:37;;;;;;;4.47;2.10;;;10.70;99.90;;;;;;4969347;28;20487;-76
2023/10/23 03:02:23;;;;;;;7.18;2.78;;;10.80;99.90;;;;;;4980584;28;20038;-76
2023/10/23 03:05:09;;;;;;;5.85;2.22;;;10.70;99.90;;;;;;4993661;28;20068;-76
2023/10/23 03:07:55;;;;;;;4.93;2.40;;;10.80;99.90;;;;;;4973500;28;20046;-76
2023/10/23 03:10:42;;;;;;;3.63;2.15;;;10.70;99.90;;;;;;4981131;28;20035;-76
2023/10/23 03:13:28;;;;;;;4.68;2.17;;;10.70;99.90;;;;;;4976276;28;20073;-76
2023/10/23 03:16:16;;;;;;;4.43;2.25;;;10.70;99.90;;;;;;4974607;28;20129;-76
2023/10/23 03:19:02;;;;;;;5.82;2.60;;;10.70;99.90;;;;;;4993842;28;20053;-76
2023/10/23 03:21:48;;;;;;;6.57;2.40;;;10.70;99.90;;;;;;4978564;28;20035;-76
2023/10/23 03:24:34;;;;;;;5.32;2.15;;;10.70;99.90;;;;;;4992831;28;20042;-76
2023/10/23 03:27:21;;;;;;;6.35;2.50;;;10.70;99.90;;;;;;4991021;28;20644;-76
2023/10/23 03:30:08;;;;;;;4.28;2.58;;;10.70;99.90;;;;;;4959717;28;20065;-76
2023/10/23 03:32:54;;;;;;;5.85;2.78;;;10.70;99.90;;;;;;4965820;28;20332;-76
2023/10/23 03:35:43;;;;;;;4.25;2.47;;;10.60;99.90;;;;;;4964673;28;20088;-76
2023/10/23 03:38:29;;;;;;;6.07;2.55;;;10.60;99.90;;;;;;4989286;28;20046;-76
2023/10/23 03:41:15;;;;;;;5.60;2.28;;;10.70;99.90;;;;;;4958373;28;20039;-76
2023/10/23 03:44:02;;;;;;;4.07;2.58;;;10.70;99.90;;;;;;4957008;28;20043;-76
2023/10/23 03:46:48;;;;;;;5.80;2.70;;;10.60;99.90;;;;;;4939175;29;20049;-76
2023/10/23 03:49:33;;;;;;;7.55;2.20;;;10.70;99.90;;;;;;4948988;28;20064;-76
2023/10/23 03:52:19;;;;;;;4.38;2.20;;;10.70;99.90;;;;;;4958628;28;20047;-76
2023/10/23 03:55:06;;;;;;;9.55;6.13;;;10.70;99.90;;;;;;4956004;28;20511;-76
2023/10/23 03:57:52;;;;;;;7.75;3.67;;;10.70;99.90;;;;;;4939024;29;20047;-76
2023/10/23 04:00:38;;;;;;;4.80;2.17;;;10.80;99.90;;;;;;4944353;28;20042;-76
2023/10/23 04:03:24;;;;;;;4.05;2.35;;;10.80;99.90;;;;;;4935937;28;20043;-76
2023/10/23 04:06:09;;;;;;;5.32;2.05;;;10.70;99.90;;;;;;4948372;28;20532;-76
2023/10/23 04:08:55;;;;;;;4.40;2.25;;;10.70;99.90;;;;;;4950137;28;20394;-76
2023/10/23 04:11:41;;;;;;;2.58;2.03;;;10.70;99.90;;;;;;4962650;28;20134;-76
2023/10/23 04:14:27;;;;;;;5.70;2.25;;;10.70;99.90;;;;;;4949245;28;20760;-76
2023/10/23 04:17:13;;;;;;;6.00;2.50;;;10.60;99.90;;;;;;4930329;29;20043;-76
2023/10/23 04:19:59;;;;;;;10.82;3.17;;;10.70;99.90;;;;;;4930148;29;20046;-76
2023/10/23 04:22:45;;;;;;;4.40;2.20;;;10.60;99.90;;;;;;4935273;28;20046;-76
2023/10/23 04:25:31;;;;;;;5.75;2.20;;;10.60;99.90;;;;;;4961633;28;20057;-76
2023/10/23 04:28:17;;;;;;;5.18;2.28;;;10.60;99.90;;;;;;4943167;29;20823;-76
2023/10/23 04:31:06;;;;;;;3.80;2.28;;;10.70;99.90;;;;;;4942782;29;20074;-76
2023/10/23 04:33:52;;;;;;;6.03;2.70;;;10.70;99.90;;;;;;4948895;28;20117;-75
2023/10/23 04:36:38;;;;;;;5.32;2.50;;;10.70;99.90;;;;;;4949060;28;20047;-75
2023/10/23 04:39:24;;;;;;;4.43;2.45;;;10.70;99.90;;;;;;4960432;28;20042;-76
2023/10/23 04:42:10;;;;;;;5.15;2.78;;;10.70;99.90;;;;;;4981958;28;20095;-76
2023/10/23 04:44:55;;;;;;;7.85;2.90;;;10.70;99.90;;;;;;4971228;28;20042;-76
2023/10/23 04:47:41;;;;;;;5.32;2.67;;;10.60;99.90;;;;;;4982041;28;20129;-76
2023/10/23 04:50:33;;;;;;;6.70;2.50;;;10.70;99.90;;;;;;4984368;28;20049;-76
2023/10/23 04:53:19;;;;;;;4.25;2.70;;;10.70;99.90;;;;;;4991604;28;20497;-76
2023/10/23 04:56:09;;;;;;;6.07;3.17;;;10.70;99.90;;;;;;4975300;28;20439;-76
2023/10/23 04:58:56;;;;;;;7.07;2.65;;;10.80;99.90;;;;;;4995515;28;20061;-75
2023/10/23 05:01:42;;;;;;;3.97;2.58;;;10.70;99.90;;;;;;4995655;28;20039;-76
2023/10/23 05:04:31;;;;;;;4.28;2.33;;;10.80;99.90;;;;;;4975155;28;20042;-75
2023/10/23 05:07:17;;;;;;;6.53;2.50;;;10.80;99.90;;;;;;4989387;28;20129;-77
2023/10/23 05:10:04;;;;;;;7.95;3.05;;;10.80;99.90;;;;;;4953774;28;20069;-77
2023/10/23 05:12:50;;;;;;;7.57;3.30;;;10.80;99.90;;;;;;4998241;28;20054;-75
2023/10/23 05:15:36;;;;;;;6.15;2.53;;;10.80;99.90;;;;;;4977115;28;20039;-76
2023/10/23 05:18:21;;;;;;;6.25;3.22;;;10.80;99.90;;;;;;4989427;28;20043;-76
2023/10/23 05:21:12;;;;;;;4.07;2.70;;;10.80;99.90;;;;;;4979072;28;20116;-76
2023/10/23 05:23:58;;;;;;;6.43;2.40;;;10.80;99.90;;;;;;4982009;28;20053;-76
2023/10/23 05:26:43;;;;;;;5.25;2.78;;;10.80;99.90;;;;;;4986487;28;20045;-75
2023/10/23 05:29:29;;;;;;;4.47;2.78;;;10.80;99.90;;;;;;4972028;28;20088;-75
2023/10/23 05:32:15;;;;;;;4.35;2.78;;;10.80;99.90;;;;;;4976448;28;20077;-75
2023/10/23 05:35:03;;;;;;;6.00;2.92;;;10.70;99.90;;;;;;4964024;28;20108;-75
2023/10/23 05:37:49;;;;;;;5.57;2.97;;;10.70;99.90;;;;;;4973851;28;20054;-76
2023/10/23 05:40:35;;;;;;;5.68;2.58;;;10.70;99.90;;;;;;4983500;28;20046;-76
2023/10/23 05:43:21;;;;;;;6.70;2.92;;;10.70;99.90;;;;;;4983126;28;20046;-76
2023/10/23 05:46:07;;;;;;;6.43;2.88;;;10.80;99.90;;;;;;4980272;28;20382;-75
2023/10/23 05:48:53;;;;;;;6.70;3.03;;;10.80;99.90;;;;;;5003603;28;20042;-76
2023/10/23 05:51:39;;;;;;;5.90;3.13;;;10.80;99.90;;;;;;4968758;28;20042;-75
2023/10/23 05:54:25;;;;;;;6.75;3.00;;;10.80;99.90;;;;;;4991853;28;20057;-73
2023/10/23 05:57:11;;;;;;;4.25;2.58;;;10.80;99.90;;;;;;4991030;28;20034;-74
2023/10/23 05:59:57;;;;;;;10.20;2.97;;;10.90;99.90;;;;;;4988214;28;20466;-74
2023/10/23 06:02:43;;;;;;;9.40;3.40;;;10.90;99.90;;;;;;4978781;28;20180;-74
2023/10/23 06:05:29;;;;;;;6.95;2.80;;;10.90;99.90;;;;;;4991713;28;20068;-73
2023/10/23 06:08:15;;;;;;;4.32;3.00;;;10.90;99.90;;;;;;4990894;28;20041;-73
2023/10/23 06:11:01;;;;;;;6.35;3.08;;;10.90;99.90;;;;;;4954465;28;20459;-73
2023/10/23 06:13:50;;;;;;;6.13;3.00;;;10.90;99.90;;;;;;4982505;28;20723;-73
2023/10/23 06:16:36;;;;;;;4.72;3.05;;;10.90;99.90;;;;;;4992192;28;20050;-73
2023/10/23 06:19:22;;;;;;;4.15;2.78;;;10.90;99.90;;;;;;4982847;28;20078;-75
2023/10/23 06:22:08;;;;;;;4.45;2.70;;;10.90;99.90;;;;;;4988657;28;20062;-75
2023/10/23 06:24:54;;;;;;;6.63;3.35;;;11.00;99.90;;;;;;4959290;28;20035;-76
2023/10/23 06:27:40;;;;;;;4.93;3.00;;;11.00;99.90;;;;;;4962705;28;20050;-76
2023/10/23 06:30:26;;;;;;;7.43;2.88;;;11.00;99.90;;;;;;4985527;28;20042;-76
2023/10/23 06:33:12;;;;;;;5.13;2.88;;;11.00;99.90;;;;;;4984281;28;20042;-76
2023/10/23 06:36:01;;;;;;;6.35;3.65;;;11.00;99.90;;;;;;4997192;28;20030;-76
2023/10/23 06:38:47;;;;;;;5.30;2.60;;;11.10;99.90;;;;;;4966965;28;20065;-73
2023/10/23 06:41:33;;;;;;;5.45;3.10;;;11.00;99.90;;;;;;4994743;28;20091;-73
2023/10/23 06:44:19;;;;;;;5.47;3.20;;;11.10;99.90;;;;;;4974115;28;20108;-75
2023/10/23 06:47:05;;;;;;;6.68;3.60;;;11.10;99.90;;;;;;4987954;28;20038;-75
2023/10/23 06:49:51;;;;;;;7.47;3.03;;;11.10;99.90;;;;;;4961178;28;20051;-75
2023/10/23 06:52:37;;;;;;;5.25;2.92;;;11.20;99.90;;;;;;4966473;28;20757;-75
2023/10/23 06:55:26;;;;;;;6.53;3.10;;;11.20;99.90;;;;;;5005316;28;20041;-75
2023/10/23 06:58:12;;;;;;;5.93;2.95;;;11.20;99.90;;;;;;4995101;28;20091;-76
2023/10/23 07:01:06;;;;;;;5.57;3.35;;;11.20;99.90;;;;;;4979337;28;20109;-76
2023/10/23 07:03:52;;;;;;;7.43;4.53;;;11.20;99.90;;;;;;4976984;28;20128;-75
2023/10/23 07:06:38;;;;;;;6.90;3.42;;;11.20;99.90;;;;;;4980898;28;20414;-75
2023/10/23 07:09:24;;;;;;;5.88;2.95;;;11.20;99.90;;;;;;4964243;28;20042;-76
2023/10/23 07:12:10;;;;;;;7.60;3.75;;;11.20;99.90;;;;;;4992995;28;20072;-76
2023/10/23 07:14:56;;;;;;;4.22;3.00;;;11.20;99.90;;;;;;4993505;28;20058;-75
2023/10/23 07:17:42;;;;;;;7.75;3.47;;;11.20;99.90;;;;;;5009165;28;20058;-75
2023/10/23 07:20:28;;;;;;;4.63;3.00;;;11.30;99.90;;;;;;4993549;28;20034;-75
2023/10/23 07:23:14;;;;;;;5.25;3.55;;;11.30;99.90;;;;;;5002491;28;20393;-75
2023/10/23 07:26:07;;;;;;;7.30;2.97;;;11.30;99.90;;;;;;4992059;28;20092;-76
2023/10/23 07:28:53;;;;;;;4.03;2.83;;;11.30;99.90;;;;;;4976771;28;20042;-76
2023/10/23 07:31:39;;;;;;;6.63;3.05;;;11.40;99.90;;;;;;4981481;28;20077;-75
2023/10/23 07:34:25;;;;;;;5.70;3.20;;;11.40;99.90;;;;;;4975985;28;20130;-75
2023/10/23 07:37:17;;;;;;;4.65;3.10;;;11.40;99.90;;;;;;4996085;28;20039;-75
2023/10/23 07:40:07;;;;;;;6.20;3.53;;;11.50;99.90;;;;;;4980651;28;20053;-75
2023/10/23 07:42:53;;;;;;;5.60;3.70;;;11.60;99.90;;;;;;4972867;28;20042;-75
2023/10/23 07:45:39;;;;;;;6.93;4.00;;;11.60;99.90;;;;;;4974079;28;20073;-75
2023/10/23 07:48:25;;;;;;;5.65;3.33;;;11.60;99.90;;;;;;4977864;28;20047;-75
2023/10/23 07:51:11;;;;;;;7.15;3.90;;;11.60;99.90;;;;;;4995019;28;20069;-75
2023/10/23 07:53:57;;;;;;;6.95;3.33;;;11.60;99.90;;;;;;4988911;28;20084;-75
2023/10/23 07:56:45;;;;;;;4.70;3.00;;;11.70;99.90;;;;;;4981718;28;20420;-75
2023/10/23 07:59:32;;;;;;;4.93;2.95;;;11.70;99.90;;;;;;4968766;28;20591;-75
2023/10/23 08:02:18;;;;;;;8.27;3.05;;;11.70;99.90;;;;;;5005654;28;20049;-75
2023/10/23 08:05:04;;;;;;;6.53;2.95;;;11.70;99.90;;;;;;4987789;28;20042;-75
2023/10/23 08:07:50;;;;;;;5.15;3.60;;;11.80;99.90;;;;;;4985123;28;20383;-75
2023/10/23 08:10:36;;;;;;;5.82;3.83;;;11.80;99.90;;;;;;4987257;28;20050;-75
2023/10/23 08:13:22;;;;;;;10.75;5.15;;;11.90;99.90;;;;;;4966846;28;20042;-75
2023/10/23 08:16:08;;;;;;;6.95;4.40;;;12.00;99.90;;;;;;4989817;28;20023;-75
2023/10/23 08:18:55;;;;;;;8.80;5.25;;;11.90;99.90;;;;;;5005273;28;20124;-75
2023/10/23 08:21:41;;;;;;;7.05;4.13;;;12.00;99.90;;;;;;5017242;28;20038;-75
2023/10/23 08:24:27;;;;;;;8.82;4.47;;;12.00;99.90;;;;;;4996023;28;20515;-75
2023/10/23 08:27:13;;;;;;;7.18;3.90;;;12.10;99.90;;;;;;4995402;28;20091;-75
2023/10/23 08:29:59;;;;;;;7.43;4.30;;;12.10;99.90;;;;;;4995291;28;20038;-75
2023/10/23 08:32:45;;;;;;;8.38;4.20;;;12.10;99.90;;;;;;4967295;28;20533;-75
2023/10/23 08:35:32;;;;;;;7.85;3.90;;;12.10;99.90;;;;;;4980499;28;20046;-75
2023/10/23 08:38:18;;;;;;;9.15;4.53;;;12.10;99.90;;;;;;4978752;28;20100;-74
2023/10/23 08:41:04;;;;;;;7.40;4.70;;;12.10;99.90;;;;;;4945749;28;20077;-73
2023/10/23 08:43:50;;;;;;;10.48;5.00;;;12.20;99.90;;;;;;4929671;29;20039;-73
2023/10/23 08:46:36;;;;;;;7.25;4.65;;;12.20;99.90;;;;;;4943818;28;20046;-73
2023/10/23 08:49:22;;;;;;;7.90;4.55;;;12.20;99.90;;;;;;4955057;28;20379;-73
2023/10/23 08:52:10;;;;;;;8.93;5.13;;;12.30;99.90;;;;;;4941840;28;20038;-73
2023/10/23 08:54:56;;;;;;;;;;;12.30;99.90;;;;;;4938684;29;20047;-73
2023/10/23 08:57:47;;;;;;;7.38;4.93;;;12.30;99.90;;;;;;4961638;28;19921;-73
2023/10/23 09:00:33;;;;;;;9.98;5.38;;;12.30;99.90;;;;;;4951319;28;20034;-73
2023/10/23 09:03:19;;;;;;;10.35;4.68;;;12.30;99.90;;;;;;4960980;28;20049;-73
2023/10/23 09:06:09;;;;;;;10.50;4.65;;;12.40;99.90;;;;;;4937279;28;20498;-73
2023/10/23 09:08:55;;;;;;;8.27;4.50;;;12.50;99.90;;;;;;4943734;28;20518;-73
2023/10/23 09:11:45;;;;;;;6.82;4.43;;;12.50;99.90;;;;;;4944275;28;20046;-73
2023/10/23 09:14:31;;;;;;;9.85;4.18;;;12.60;99.90;;;;;;4933340;29;20083;-73
2023/10/23 09:17:18;;;;;;;9.55;4.40;;;12.70;99.90;;;;;;4952831;28;20051;-73
2023/10/23 09:20:16;;;;;;;6.90;3.90;;;12.70;99.90;;;;;;4929470;28;20054;-72
2023/10/23 09:23:02;;;;;;;8.77;4.20;;;12.90;99.90;;;;;;4963722;28;20420;-73
2023/10/23 09:25:49;;;;;;;9.38;4.93;;;13.00;99.90;;;;;;4930255;28;20039;-73
2023/10/23 09:28:35;;;;;;;5.93;3.92;;;13.00;99.90;;;;;;4943535;28;20631;-73
2023/10/23 09:31:21;;;;;;;6.70;3.58;;;13.10;99.90;;;;;;4934969;28;20043;-72
2023/10/23 09:34:08;;;;;;;9.57;5.03;;;13.20;99.90;;;;;;4954366;28;20047;-73
2023/10/23 09:36:54;;;;;;;6.13;4.50;;;13.30;99.90;;;;;;4940888;28;20035;-73
2023/10/23 09:39:40;;;;;;;5.93;3.88;;;13.40;99.90;;;;;;4958888;28;20050;-73
2023/10/23 09:42:32;;;;;;;7.63;4.55;;;13.60;99.90;;;;;;4954686;28;20043;-72
2023/10/23 09:45:18;;;;;;;9.82;4.20;;;13.70;99.90;;;;;;4972528;28;20734;-73
2023/10/23 09:48:13;;;;;;;10.07;5.55;;;13.80;99.90;;;;;;4979020;28;20066;-73
2023/10/23 09:51:00;;;;;;;11.63;5.40;;;13.90;99.90;;;;;;4962543;28;20085;-73
2023/10/23 09:53:48;;;;;;;6.65;5.22;;;14.00;99.90;;;;;;4982414;28;20081;-73
2023/10/23 09:56:34;;;;;;;;;;;14.20;99.90;;;;;;4971798;28;20424;-72
2023/10/23 09:59:33;;;;;;;10.32;5.07;;;14.30;99.90;;;;;;4977398;28;19914;-73
2023/10/23 10:02:19;;;;;;;11.63;6.60;;;14.40;99.90;;;;;;4981244;28;20150;-72
2023/10/23 10:05:07;;;;;;;9.05;5.82;;;14.50;99.90;;;;;;4984752;28;20046;-74
2023/10/23 10:07:53;;;;;;;7.47;4.90;;;14.50;99.90;;;;;;4972413;28;20046;-73
2023/10/23 10:10:39;;;;;;;10.65;5.43;;;14.60;99.90;;;;;;4983082;28;20078;-73
2023/10/23 10:13:25;;;;;;;6.95;5.88;;;14.70;99.90;;;;;;4986840;28;20128;-72
2023/10/23 10:16:11;;;;;;;8.10;6.40;;;14.50;99.90;;;;;;4965834;28;20470;-75
2023/10/23 10:18:57;;;;;;;8.48;4.70;;;14.60;99.90;;;;;;4983605;28;20042;-75
2023/10/23 10:22:10;;;;;;;8.20;4.43;;;14.70;99.90;;;;;;4976257;28;20046;-76
2023/10/23 10:24:56;;;;;;;4.82;3.92;;;15.10;99.90;;;;;;4980947;28;20042;-75
2023/10/23 10:27:43;;;;;;;8.80;5.10;;;15.10;99.90;;;;;;4985542;28;20070;-74
2023/10/23 10:30:46;;;;;;;7.72;4.70;;;15.20;99.90;;;;;;4974458;28;20050;-75
2023/10/23 10:33:32;;;;;;;8.88;4.50;;;15.10;99.90;;;;;;4992547;28;20061;-75
2023/10/23 10:36:18;;;;;;;7.65;4.75;;;15.30;99.90;;;;;;4985222;28;20034;-75
2023/10/23 10:39:05;;;;;;;6.75;4.18;;;15.60;99.90;;;;;;4981208;28;20109;-75
2023/10/23 10:41:51;;;;;;;7.63;4.38;;;15.60;99.90;;;;;;4969999;28;20042;-73
2023/10/23 10:44:54;;;;;;;7.03;5.03;;;15.90;99.90;;;;;;4979441;28;20236;-74
2023/10/23 10:47:48;;;;;;;9.70;5.80;;;15.80;99.90;;;;;;4974381;28;20070;-73
2023/10/23 10:50:36;;;;;;;7.78;4.78;;;15.60;99.90;;;;;;4996790;28;20829;-73
2023/10/23 10:53:22;;;;;;;8.23;5.15;;;15.80;99.90;;;;;;4985704;28;20053;-73
2023/10/23 10:56:09;;;;;;;5.80;4.05;;;15.90;99.90;;;;;;4965666;28;20541;-73
2023/10/23 10:58:58;;;;;;;5.32;3.33;;;16.60;99.90;;;;;;4986961;28;20034;-74
2023/10/23 11:01:44;;;;;;;7.55;4.35;;;17.30;99.90;;;;;;4962224;28;20043;-73
2023/10/23 11:04:32;;;;;;;5.40;3.70;;;17.90;99.90;;;;;;4961727;28;20443;-74
2023/10/23 11:07:25;;;;;;;4.32;3.65;;;17.70;99.90;;;;;;4955049;28;20074;-73
2023/10/23 11:10:12;;;;;;;7.32;4.00;;;17.20;99.90;;;;;;4960074;28;20543;-73
2023/10/23 11:12:58;;;;;;;5.73;3.87;;;16.80;99.90;;;;;;4994081;28;20457;-72
2023/10/23 11:15:45;;;;;;;5.72;3.75;;;16.60;99.90;;;;;;4965752;28;20176;-73
2023/10/23 11:18:31;;;;;;;6.50;3.97;;;16.40;99.90;;;;;;4966148;28;20042;-73
2023/10/23 11:21:22;;;;;;;7.75;3.97;;;16.20;99.90;;;;;;4969772;28;20083;-72
2023/10/23 11:24:08;;;;;;;8.68;4.20;;;16.10;99.90;;;;;;4983992;28;20112;-72
2023/10/23 11:26:54;;;;;;;4.80;3.50;;;16.00;99.90;;;;;;4990584;28;20050;-72
2023/10/23 11:29:40;;;;;;;6.93;4.05;;;16.10;99.90;;;;;;4971785;28;20353;-72
2023/10/23 11:32:27;;;;;;;6.65;3.92;;;16.10;99.90;;;;;;4964367;28;20061;-73
2023/10/23 11:35:13;;;;;;;9.63;4.22;;;16.20;99.90;;;;;;4976784;28;20057;-73
2023/10/23 11:37:59;;;;;;;8.30;4.47;;;16.10;99.90;;;;;;5005806;28;20030;-73
2023/10/23 11:40:45;;;;;;;7.70;4.35;;;16.00;99.90;;;;;;4973861;28;20365;-73
2023/10/23 11:43:31;;;;;;;8.20;4.63;;;16.20;99.90;;;;;;4960009;28;20385;-73
2023/10/23 11:46:17;;;;;;;6.13;3.97;;;16.30;99.90;;;;;;4971758;28;20046;-73
2023/10/23 11:49:04;;;;;;;7.95;4.05;;;16.30;99.90;;;;;;5005524;28;20042;-73
2023/10/23 11:51:55;;;;;;;8.02;4.60;;;16.20;99.90;;;;;;4965947;28;20873;-73
2023/10/23 11:54:40;;;;;;;5.63;3.47;;;16.30;99.90;;;;;;4971911;28;20089;-73
2023/10/23 11:57:26;;;;;;;6.85;4.35;;;16.60;99.90;;;;;;4970005;28;20042;-73
2023/10/23 12:00:13;;;;;;;5.85;3.55;;;16.50;99.90;;;;;;4977198;28;20375;-73
2023/10/23 12:02:59;;;;;;;6.95;3.72;;;16.80;99.90;;;;;;4962996;28;20073;-73
2023/10/23 12:05:45;;;;;;;8.30;4.38;;;17.10;99.90;;;;;;4995091;28;20103;-73
2023/10/23 12:08:31;;;;;;;7.13;4.75;;;17.00;99.90;;;;;;4983077;28;20039;-73
2023/10/23 12:11:17;;;;;;;6.30;4.25;;;16.70;99.90;;;;;;4951677;28;20098;-73
2023/10/23 12:14:03;;;;;;;6.97;4.43;;;16.90;99.90;;;;;;4974699;28;20467;-73
2023/10/23 12:16:49;;;;;;;8.00;3.58;;;17.40;99.90;;;;;;4951936;28;20052;-74
2023/10/23 12:19:35;;;;;;;10.50;3.85;;;17.50;99.90;;;;;;4990885;28;20034;-74
2023/10/23 12:22:21;;;;;;;6.55;3.63;;;17.40;99.90;;;;;;4963763;28;20050;-74
2023/10/23 12:25:08;;;;;;;4.25;3.15;;;17.70;99.90;;;;;;4969348;28;20042;-74
2023/10/23 12:27:54;;;;;;;5.57;3.70;;;18.00;99.90;;;;;;4987259;28;20046;-74
2023/10/23 12:30:40;;;;;;;8.90;3.78;;;18.00;99.90;;;;;;4967004;28;20498;-74
2023/10/23 12:33:26;;;;;;;6.68;4.13;;;17.80;99.90;;;;;;4965747;28;20050;-74
2023/10/23 12:36:13;;;;;;;5.30;3.53;;;17.60;99.90;;;;;;4968271;28;20117;-74
2023/10/23 12:38:59;;;;;;;6.43;3.65;;;17.30;99.90;;;;;;4977807;28;20054;-73
2023/10/23 12:41:45;;;;;;;5.25;3.85;;;17.10;99.90;;;;;;4985629;28;20042;-74
2023/10/23 12:44:31;;;;;;;4.82;3.45;;;17.00;99.90;;;;;;4973619;28;20068;-73
2023/10/23 12:47:17;;;;;;;5.43;3.45;;;16.80;99.90;;;;;;4981500;28;20275;-73
2023/10/23 12:50:04;;;;;;;7.93;3.75;;;16.70;99.90;;;;;;4995281;28;20042;-74
2023/10/23 12:52:50;;;;;;;5.88;3.50;;;16.70;99.90;;;;;;4974826;28;20050;-74
2023/10/23 12:55:36;;;;;;;5.20;3.45;;;17.10;99.90;;;;;;4974877;28;20074;-74
2023/10/23 12:58:22;;;;;;;7.38;3.50;;;17.10;99.90;;;;;;4983672;28;20108;-74
2023/10/23 13:01:08;;;;;;;6.38;3.95;;;16.90;99.90;;;;;;4991410;28;20045;-73
2023/10/23 13:03:54;;;;;;;8.27;4.38;;;16.80;99.90;;;;;;4982271;28;20049;-73
2023/10/23 13:06:40;;;;;;;8.57;3.83;;;16.70;99.90;;;;;;4979512;28;20076;-73
2023/10/23 13:09:26;;;;;;;7.30;4.00;;;16.70;99.90;;;;;;4988748;28;20061;-74
2023/10/23 13:12:12;;;;;;;5.63;3.95;;;16.60;99.90;;;;;;4980446;28;20073;-74
2023/10/23 13:14:58;;;;;;;5.20;3.50;;;16.60;99.90;;;;;;4979812;28;20387;-73
2023/10/23 13:17:43;;;;;;;7.93;3.88;;;16.50;99.90;;;;;;4978872;28;20043;-73
2023/10/23 13:20:29;;;;;;;6.28;3.97;;;16.50;99.90;;;;;;4963781;28;20487;-73
2023/10/23 13:23:16;;;;;;;6.97;3.65;;;16.50;99.90;;;;;;4981773;28;20054;-73
2023/10/23 13:26:01;;;;;;;4.93;3.47;;;16.40;99.90;;;;;;4979359;28;20058;-73
2023/10/23 13:28:48;;;;;;;7.10;4.00;;;16.30;99.90;;;;;;4992540;28;20046;-73
2023/10/23 13:31:34;;;;;;;6.95;4.00;;;16.30;99.90;;;;;;4980892;28;20714;-73
2023/10/23 13:34:20;;;;;;;6.05;3.78;;;16.30;99.90;;;;;;4976771;28;20053;-73
2023/10/23 13:37:06;;;;;;;5.85;3.80;;;16.20;99.90;;;;;;4995318;28;20034;-73
2023/10/23 13:39:52;;;;;;;6.28;3.72;;;16.20;99.90;;;;;;4970554;28;20106;-74
2023/10/23 13:42:38;;;;;;;6.68;3.47;;;16.10;99.90;;;;;;4990001;28;20038;-73
2023/10/23 13:45:24;;;;;;;6.53;3.72;;;16.10;99.90;;;;;;4984757;28;20042;-73
2023/10/23 13:48:10;;;;;;;6.97;3.75;;;16.10;99.90;;;;;;4978857;28;20038;-73
2023/10/23 13:50:56;;;;;;;6.05;3.67;;;16.10;99.90;;;;;;4979648;28;20157;-73
2023/10/23 13:53:42;;;;;;;6.32;4.28;;;16.00;99.90;;;;;;4992291;28;20042;-73
2023/10/23 13:56:28;;;;;;;4.57;3.42;;;16.00;99.90;;;;;;4970623;28;20158;-73
2023/10/23 13:59:14;;;;;;;6.75;3.85;;;16.00;99.90;;;;;;4983298;28;20034;-73
2023/10/23 14:02:00;;;;;;;6.72;3.92;;;15.90;99.90;;;;;;4979734;28;20431;-74
2023/10/23 14:04:47;;;;;;;8.32;3.90;;;15.90;99.90;;;;;;4988535;28;20053;-73
2023/10/23 14:07:33;;;;;;;5.90;3.43;;;15.80;99.90;;;;;;4965012;28;20178;-73
2023/10/23 14:10:19;;;;;;;5.95;3.33;;;15.90;99.90;;;;;;5002821;28;20054;-73
2023/10/23 14:13:05;;;;;;;6.00;3.42;;;15.80;99.90;;;;;;4967579;28;20100;-74
2023/10/23 14:15:52;;;;;;;6.03;3.72;;;15.80;99.90;;;;;;4982889;28;20203;-74
2023/10/23 14:18:38;;;;;;;5.20;3.60;;;15.80;99.90;;;;;;4970573;28;20779;-74
2023/10/23 14:21:23;;;;;;;7.35;3.67;;;15.80;99.90;;;;;;4974705;28;20039;-74
2023/10/23 14:24:09;;;;;;;4.38;3.65;;;15.80;99.90;;;;;;4990025;28;20046;-74
2023/10/23 14:26:56;;;;;;;5.40;3.78;;;15.80;99.90;;;;;;4988838;28;20034;-74
2023/10/23 14:29:42;;;;;;;6.95;3.60;;;15.80;99.90;;;;;;4986227;28;20042;-74